METAR Data
IDs: Format: Raw Decoded Include TAF

Data at: 0609 UTC 24 Sep 2018

KCNB 240555Z AUTO 11010G15KT 090V170 10SM CLR 22/15 A2979 RMK AO2 T02200146 10242 20171 402810125
KCNB 240535Z AUTO 13007G10KT 090V160 10SM CLR 22/15 A2980 RMK AO2 T02200146
KCNB 240515Z AUTO 11008KT 100V160 10SM CLR 22/15 A2981 RMK AO2 T02170146
KCNB 240455Z AUTO 11007KT 10SM CLR 22/14 A2981 RMK AO2 T02150143
KCNB 240435Z AUTO 10006KT 10SM CLR 21/14 A2981 RMK AO2 T02110142
KCNB 240415Z AUTO 11009KT 10SM CLR 21/14 A2980 RMK AO2 T02110140
KCNB 240355Z AUTO 11007KT 10SM CLR 21/14 A2980 RMK AO2 T02060135
KCNB 240335Z AUTO 11007KT 10SM CLR 20/13 A2980 RMK AO2 T01980130
KCNB 240315Z AUTO 09006KT 10SM CLR 19/13 A2979 RMK AO2 T01880125
KCNB 240255Z AUTO 09007KT 10SM CLR 17/12 A2979 RMK AO2 T01710121
KCNB 240235Z AUTO 10005KT 10SM CLR 18/12 A2980 RMK AO2 T01750122
KCNB 240215Z AUTO 09006KT 10SM CLR 18/12 A2980 RMK AO2 T01780120
KCNB 240155Z AUTO 10005KT 10SM CLR 19/12 A2982 RMK AO2 T01910119
KCNB 240135Z AUTO 00000KT 10SM CLR 21/11 A2982 RMK AO2 T02100108
KCNB 240115Z AUTO 11004KT 10SM CLR 21/11 A2980 RMK AO2 T02100110
KCNB 240055Z AUTO 10005KT 10SM CLR 21/11 A2980 RMK AO2 T02100111
KCNB 240035Z AUTO 09007KT 10SM CLR 22/12 A2979 RMK AO2 T02180115
KCNB 240015Z AUTO 12006KT 10SM CLR 24/11 A2980 RMK AO2 T02360110
KCNB 232355Z AUTO 11007KT 090V150 10SM CLR 25/11 A2980 RMK AO2 T02450106 10281 20245
KCNB 232335Z AUTO 13009KT 090V170 10SM CLR 25/10 A2979 RMK AO2 T02510102
KCNB 232315Z AUTO 15010G14KT 110V180 10SM CLR 26/10 A2979 RMK AO2 T02580101
KCNB 232255Z AUTO 15013G21KT 110V190 10SM CLR 27/09 A2979 RMK AO2 T02670093
KCNB 232235Z AUTO 14010G18KT 100V170 10SM CLR 28/09 A2979 RMK AO2 T02750091
KCNB 232215Z AUTO 14013G16KT 090V170 10SM CLR 28/10 A2979 RMK AO2 T02760102
KCNB 232155Z AUTO 14015G21KT 100V180 10SM CLR 28/10 A2979 RMK AO2 T02780102
KCNB 232135Z AUTO 15012G24KT 120V180 10SM CLR 28/10 A2980 RMK AO2 T02800100
KCNB 232115Z AUTO 14017G23KT 100V170 10SM CLR 28/11 A2980 RMK AO2 T02810106
KCNB 232055Z AUTO 14018G22KT 100V160 10SM CLR 28/11 A2981 RMK AO2 T02800105
KCNB 232035Z AUTO 14018G24KT 100V180 10SM CLR 28/11 A2982 RMK AO2 T02800107
KCNB 232015Z AUTO 16016G25KT 130V200 10SM CLR 28/10 A2982 RMK AO2 T02810102
KCNB 231955Z AUTO 13014G22KT 090V170 10SM CLR 28/12 A2982 RMK AO2 T02800116
KCNB 231935Z AUTO 10015G25KT 10SM CLR 28/12 A2983 RMK AO2 T02780121
KCNB 231915Z AUTO 13016G22KT 100V170 10SM CLR 28/11 A2985 RMK AO2 T02750113
KCNB 231855Z AUTO 11012KT 090V170 10SM CLR 27/12 A2985 RMK AO2 T02660123
KCNB 231835Z AUTO 12015G18KT 090V160 10SM CLR 26/13 A2987 RMK AO2 T02600127
KCNB 231815Z AUTO 11012G17KT 10SM CLR 25/13 A2988 RMK AO2 T02500125
KCNB 231756Z AUTO 12011G14KT 100V160 10SM CLR 25/13 A2989 RMK AO2 T02450129 10245 20125
KCNB 231735Z AUTO 11009KT 10SM CLR 24/13 A2990 RMK AO2 T02390125
KCNB 231715Z AUTO 11009G14KT 10SM CLR 23/13 A2992 RMK AO2 T02340125
KCNB 231655Z AUTO 13004KT 10SM CLR 23/12 A2993 RMK AO2 T02290124
KCNB 231635Z AUTO 16005KT 10SM CLR 22/12 A2993 RMK AO2 T02180123
KCNB 231615Z AUTO 13004KT 10SM CLR 21/12 A2994 RMK AO2 T02120122
KCNB 231555Z AUTO 13004KT 10SM CLR 21/13 A2995 RMK AO2 T02080127
KCNB 231535Z AUTO 15003KT 10SM CLR 20/12 A2996 RMK AO2 T02000122
KCNB 231515Z AUTO 11005KT 10SM CLR 19/12 A2996 RMK AO2 T01920120
KCNB 231455Z AUTO 13003KT 10SM CLR 18/12 A2996 RMK AO2 T01840121
KCNB 231435Z AUTO 12003KT 10SM CLR 18/12 A2997 RMK AO2 T01770117
KCNB 231415Z AUTO 00000KT 10SM CLR 17/12 A2997 RMK AO2 T01700116
KCNB 231355Z AUTO 00000KT 10SM CLR 16/12 A2995 RMK AO2 T01640117
KCNB 231335Z AUTO 00000KT 10SM CLR 15/12 A2995 RMK AO2 T01510117
KCNB 231315Z AUTO 11003KT 10SM CLR 14/11 A2995 RMK AO2 T01370111
KCNB 231255Z AUTO 00000KT 10SM CLR 13/10 A2997 RMK AO2 T01260104
KCNB 231235Z AUTO 00000KT 10SM CLR 14/10 A2997 RMK AO2 T01360102
KCNB 231215Z AUTO 00000KT 10SM CLR 14/11 A2995 RMK AO2 T01440105
KCNB 231155Z AUTO 11003KT 10SM CLR 14/11 A2995 RMK AO2 T01430105 10181 20143
KCNB 231135Z AUTO 12003KT 10SM CLR 15/11 A2995 RMK AO2 T01510105
KCNB 231115Z AUTO 00000KT 10SM CLR 16/11 A2995 RMK AO2 T01590105
KCNB 231055Z AUTO 21003KT 10SM CLR 17/11 A2995 RMK AO2 T01650105
KCNB 231035Z AUTO 21004KT 10SM CLR 17/11 A2994 RMK AO2 T01650106
KCNB 231015Z AUTO 19005KT 10SM CLR 17/11 A2994 RMK AO2 T01660106
KCNB 230955Z AUTO 19005KT 10SM CLR 17/11 A2994 RMK AO2 T01710105
KCNB 230935Z AUTO 20004KT 10SM CLR 17/11 A2994 RMK AO2 T01700105
KCNB 230915Z AUTO 21006G15KT 10SM CLR 17/11 A2993 RMK AO2 T01740105
KCNB 230855Z AUTO 23009G19KT 170V260 10SM CLR 18/11 A2993 RMK AO2 T01750105
KCNB 230835Z AUTO 23010G15KT 190V260 10SM CLR 18/11 A2993 RMK AO2 T01750105
KCNB 230815Z AUTO 23010G16KT 190V260 10SM CLR 18/10 A2994 RMK AO2 T01770103
KCNB 230755Z AUTO 24010G21KT 10SM CLR 18/10 A2994 RMK AO2 T01770102
KCNB 230735Z AUTO 23011G19KT 190V260 10SM CLR 18/10 A2994 RMK AO2 T01800101
KCNB 230715Z AUTO 24013G21KT 190V250 10SM CLR 18/10 A2994 RMK AO2 T01800100
KCNB 230655Z AUTO 22012G18KT 180V250 10SM CLR 18/10 A2995 RMK AO2 T01810100
KCNB 230635Z AUTO 21011G18KT 160V250 10SM CLR 18/10 A2995 RMK AO2 T01800099
KCNB 230615Z AUTO 18007G14KT 10SM CLR 18/10 A2996 RMK AO2 T01780099
KCNB 230555Z AUTO 14006KT 090V170 10SM CLR 18/10 A2997 RMK AO2 T01760100 10209 20133 402350073
KCNB 230535Z AUTO 14007KT 100V170 10SM CLR 17/10 A2997 RMK AO2 T01730099
KCNB 230515Z AUTO 17007KT 10SM CLR 17/10 A2997 RMK AO2 T01720098
KCNB 230455Z AUTO 18006KT 10SM CLR 17/10 A2998 RMK AO2 T01710099
KCNB 230435Z AUTO 18006KT 10SM CLR 17/10 A2998 RMK AO2 T01660098
KCNB 230415Z AUTO 16005KT 10SM CLR 16/10 A2999 RMK AO2 T01610100
KCNB 230355Z AUTO 14005KT 10SM CLR 15/10 A2998 RMK AO2 T01470100
KCNB 230335Z AUTO 14005KT 10SM CLR 14/10 A2999 RMK AO2 T01440100
KCNB 230315Z AUTO 11005KT 10SM CLR 13/10 A2999 RMK AO2 T01340097
KCNB 230255Z AUTO 10005KT 10SM CLR 14/10 A2999 RMK AO2 T01360099
KCNB 230235Z AUTO 10006KT 10SM CLR 14/10 A2999 RMK AO2 T01400097
KCNB 230215Z AUTO 10005KT 10SM CLR 15/10 A3000 RMK AO2 T01500097
KCNB 230155Z AUTO 10005KT 10SM CLR 16/10 A3000 RMK AO2 T01630099
KCNB 230135Z AUTO 14005KT 10SM CLR 17/10 A3000 RMK AO2 T01740096
KCNB 230115Z AUTO 14006KT 10SM CLR 18/10 A3000 RMK AO2 T01750097
KCNB 230055Z AUTO 10004KT 10SM CLR 18/09 A3000 RMK AO2 T01770094
KCNB 230035Z AUTO 00000KT 10SM CLR 19/09 A3000 RMK AO2 T01910090
KCNB 230015Z AUTO 17004KT 10SM CLR 20/09 A3000 RMK AO2 T02030087
KCNB 222355Z AUTO 16005KT 10SM CLR 21/09 A2999 RMK AO2 T02100085 10235 20198
KCNB 222335Z AUTO 17008KT 10SM CLR 22/08 A2999 RMK AO2 T02190081
KCNB 222315Z AUTO 17009G17KT 10SM CLR 23/08 A2998 RMK AO2 T02250076
KCNB 222255Z AUTO 16011G16KT 10SM CLR 23/08 A2999 RMK AO2 T02270078
KCNB 222235Z AUTO 15012G17KT 090V180 10SM CLR 23/08 A2999 RMK AO2 T02310079
KCNB 222215Z AUTO 16011G15KT 110V180 10SM CLR 23/08 A2999 RMK AO2 T02320080
KCNB 222155Z AUTO 15010KT 100V190 10SM CLR 23/08 A2999 RMK AO2 T02340083
KCNB 222135Z AUTO 17011G17KT 10SM CLR 23/08 A3000 RMK AO2 T02320077
KCNB 222115Z AUTO 18012G17KT 10SM CLR 23/08 A3001 RMK AO2 T02320081
KCNB 222055Z AUTO 17007G15KT 120V220 10SM CLR 23/08 A3002 RMK AO2 T02300083
KCNB 222035Z AUTO 18012G18KT 10SM CLR 23/09 A3002 RMK AO2 T02270086
KCNB 222015Z AUTO 17011G15KT 110V200 10SM CLR 23/09 A3003 RMK AO2 T02250088
KCNB 221955Z AUTO 17013G19KT 10SM CLR 22/09 A3005 RMK AO2 T02230087
KCNB 221935Z AUTO 17011G15KT 100V240 10SM CLR 22/09 A3006 RMK AO2 T02200093
KCNB 221915Z AUTO 17012G17KT 140V240 10SM CLR 21/09 A3007 RMK AO2 T02140090
KCNB 221855Z AUTO 19009G17KT 150V230 10SM CLR 21/09 A3009 RMK AO2 T02090092
KCNB 221835Z AUTO 17013G16KT 120V220 10SM CLR 21/09 A3010 RMK AO2 T02050091
KCNB 221815Z AUTO 19011G18KT 170V250 10SM CLR 20/09 A3010 RMK AO2 T02000091